sensor_id;sensor_type;location;lat;lon;timestamp;P1;durP1;ratioP1;P2;durP2;ratioP2
54665;SDS011;40566;50.006;36.180;2024-02-21T00:03:45;12.93;;;3.45;;
54665;SDS011;40566;50.006;36.180;2024-02-21T00:09:04;7.25;;;2.20;;
54665;SDS011;40566;50.006;36.180;2024-02-21T00:14:23;7.22;;;2.67;;
54665;SDS011;40566;50.006;36.180;2024-02-21T00:19:42;4.75;;;2.22;;
54665;SDS011;40566;50.006;36.180;2024-02-21T00:25:01;11.32;;;3.95;;
54665;SDS011;40566;50.006;36.180;2024-02-21T00:30:20;4.65;;;2.38;;
54665;SDS011;40566;50.006;36.180;2024-02-21T00:35:40;4.32;;;1.80;;
54665;SDS011;40566;50.006;36.180;2024-02-21T00:40:59;8.38;;;2.92;;
54665;SDS011;40566;50.006;36.180;2024-02-21T00:46:17;5.70;;;2.40;;
54665;SDS011;40566;50.006;36.180;2024-02-21T00:51:36;7.30;;;2.00;;
54665;SDS011;40566;50.006;36.180;2024-02-21T00:56:55;6.60;;;3.08;;
54665;SDS011;40566;50.006;36.180;2024-02-21T01:02:14;4.32;;;2.03;;
54665;SDS011;40566;50.006;36.180;2024-02-21T01:07:33;11.20;;;2.13;;
54665;SDS011;40566;50.006;36.180;2024-02-21T01:12:52;5.10;;;2.15;;
54665;SDS011;40566;50.006;36.180;2024-02-21T01:18:11;5.80;;;3.53;;
54665;SDS011;40566;50.006;36.180;2024-02-21T01:23:30;4.35;;;2.28;;
54665;SDS011;40566;50.006;36.180;2024-02-21T01:28:49;5.30;;;1.95;;
54665;SDS011;40566;50.006;36.180;2024-02-21T01:34:08;10.48;;;3.10;;
54665;SDS011;40566;50.006;36.180;2024-02-21T01:39:27;5.80;;;2.63;;
54665;SDS011;40566;50.006;36.180;2024-02-21T01:44:46;9.52;;;3.00;;
54665;SDS011;40566;50.006;36.180;2024-02-21T01:50:05;4.82;;;2.13;;
54665;SDS011;40566;50.006;36.180;2024-02-21T01:55:25;6.95;;;2.03;;
54665;SDS011;40566;50.006;36.180;2024-02-21T02:00:45;5.10;;;2.47;;
54665;SDS011;40566;50.006;36.180;2024-02-21T02:06:06;5.05;;;2.15;;
54665;SDS011;40566;50.006;36.180;2024-02-21T02:11:25;6.32;;;2.13;;
54665;SDS011;40566;50.006;36.180;2024-02-21T02:16:48;4.18;;;2.50;;
54665;SDS011;40566;50.006;36.180;2024-02-21T02:22:12;4.68;;;2.42;;
54665;SDS011;40566;50.006;36.180;2024-02-21T02:27:42;11.00;;;4.00;;
54665;SDS011;40566;50.006;36.180;2024-02-21T02:33:03;2.22;;;1.20;;
54665;SDS011;40566;50.006;36.180;2024-02-21T02:38:23;6.72;;;2.70;;
54665;SDS011;40566;50.006;36.180;2024-02-21T02:49:00;3.55;;;2.05;;
54665;SDS011;40566;50.006;36.180;2024-02-21T02:54:19;8.25;;;2.03;;
54665;SDS011;40566;50.006;36.180;2024-02-21T02:59:38;9.10;;;1.88;;
54665;SDS011;40566;50.006;36.180;2024-02-21T03:04:57;4.68;;;1.77;;
54665;SDS011;40566;50.006;36.180;2024-02-21T03:10:16;2.95;;;1.88;;
54665;SDS011;40566;50.006;36.180;2024-02-21T03:15:35;5.82;;;2.42;;
54665;SDS011;40566;50.006;36.180;2024-02-21T03:20:54;6.13;;;2.63;;
54665;SDS011;40566;50.006;36.180;2024-02-21T03:26:13;4.80;;;2.30;;
54665;SDS011;40566;50.006;36.180;2024-02-21T03:31:35;3.72;;;2.25;;
54665;SDS011;40566;50.006;36.180;2024-02-21T03:36:54;5.95;;;2.95;;
54665;SDS011;40566;50.006;36.180;2024-02-21T03:42:13;6.00;;;1.65;;
54665;SDS011;40566;50.006;36.180;2024-02-21T03:47:32;4.38;;;2.15;;
54665;SDS011;40566;50.006;36.180;2024-02-21T03:52:51;4.57;;;1.90;;
54665;SDS011;40566;50.006;36.180;2024-02-21T03:58:10;3.13;;;1.83;;
54665;SDS011;40566;50.006;36.180;2024-02-21T04:03:30;8.23;;;2.20;;
54665;SDS011;40566;50.006;36.180;2024-02-21T04:08:49;7.40;;;4.05;;
54665;SDS011;40566;50.006;36.180;2024-02-21T04:14:08;5.57;;;2.38;;
54665;SDS011;40566;50.006;36.180;2024-02-21T04:19:27;6.88;;;3.20;;
54665;SDS011;40566;50.006;36.180;2024-02-21T04:24:46;15.32;;;4.32;;
54665;SDS011;40566;50.006;36.180;2024-02-21T04:30:06;5.18;;;2.50;;
54665;SDS011;40566;50.006;36.180;2024-02-21T04:35:25;4.00;;;1.88;;
54665;SDS011;40566;50.006;36.180;2024-02-21T04:40:44;3.10;;;1.45;;
54665;SDS011;40566;50.006;36.180;2024-02-21T04:46:04;3.33;;;1.67;;
54665;SDS011;40566;50.006;36.180;2024-02-21T04:51:23;3.28;;;1.88;;
54665;SDS011;40566;50.006;36.180;2024-02-21T04:56:42;2.95;;;1.63;;
54665;SDS011;40566;50.006;36.180;2024-02-21T05:02:02;2.25;;;1.42;;
54665;SDS011;40566;50.006;36.180;2024-02-21T05:07:21;6.70;;;2.85;;
54665;SDS011;40566;50.006;36.180;2024-02-21T05:12:40;5.28;;;2.47;;
54665;SDS011;40566;50.006;36.180;2024-02-21T05:17:59;14.25;;;2.55;;
54665;SDS011;40566;50.006;36.180;2024-02-21T05:23:18;3.97;;;1.63;;
54665;SDS011;40566;50.006;36.180;2024-02-21T05:28:37;6.45;;;3.00;;
54665;SDS011;40566;50.006;36.180;2024-02-21T05:33:56;8.45;;;2.08;;
54665;SDS011;40566;50.006;36.180;2024-02-21T05:39:15;4.03;;;2.67;;
54665;SDS011;40566;50.006;36.180;2024-02-21T05:44:35;5.10;;;2.55;;
54665;SDS011;40566;50.006;36.180;2024-02-21T05:49:54;3.60;;;1.60;;
54665;SDS011;40566;50.006;36.180;2024-02-21T05:55:13;9.40;;;2.42;;
54665;SDS011;40566;50.006;36.180;2024-02-21T06:00:33;7.07;;;3.63;;
54665;SDS011;40566;50.006;36.180;2024-02-21T06:05:52;4.65;;;2.20;;
54665;SDS011;40566;50.006;36.180;2024-02-21T06:11:11;7.18;;;2.10;;
54665;SDS011;40566;50.006;36.180;2024-02-21T06:16:30;4.72;;;2.60;;
54665;SDS011;40566;50.006;36.180;2024-02-21T06:21:49;5.70;;;2.75;;
54665;SDS011;40566;50.006;36.180;2024-02-21T06:32:26;19.77;;;1.77;;
54665;SDS011;40566;50.006;36.180;2024-02-21T06:37:45;4.00;;;1.67;;
54665;SDS011;40566;50.006;36.180;2024-02-21T06:43:09;6.63;;;3.22;;
54665;SDS011;40566;50.006;36.180;2024-02-21T06:48:28;8.15;;;2.83;;
54665;SDS011;40566;50.006;36.180;2024-02-21T06:53:47;10.38;;;2.72;;
54665;SDS011;40566;50.006;36.180;2024-02-21T06:59:06;5.30;;;2.10;;
54665;SDS011;40566;50.006;36.180;2024-02-21T07:04:25;8.23;;;3.35;;
54665;SDS011;40566;50.006;36.180;2024-02-21T07:09:45;6.25;;;2.10;;
54665;SDS011;40566;50.006;36.180;2024-02-21T07:15:07;8.30;;;3.17;;
54665;SDS011;40566;50.006;36.180;2024-02-21T07:20:26;5.50;;;2.70;;
54665;SDS011;40566;50.006;36.180;2024-02-21T07:25:45;7.10;;;3.10;;
54665;SDS011;40566;50.006;36.180;2024-02-21T07:31:04;9.80;;;2.17;;
54665;SDS011;40566;50.006;36.180;2024-02-21T07:36:29;13.60;;;4.18;;
54665;SDS011;40566;50.006;36.180;2024-02-21T07:41:49;9.65;;;2.50;;
54665;SDS011;40566;50.006;36.180;2024-02-21T07:47:07;4.88;;;2.40;;
54665;SDS011;40566;50.006;36.180;2024-02-21T07:52:26;5.28;;;1.67;;
54665;SDS011;40566;50.006;36.180;2024-02-21T07:57:45;7.25;;;2.95;;
54665;SDS011;40566;50.006;36.180;2024-02-21T08:03:04;6.13;;;2.47;;
54665;SDS011;40566;50.006;36.180;2024-02-21T08:08:23;8.02;;;2.97;;
54665;SDS011;40566;50.006;36.180;2024-02-21T08:13:43;5.15;;;2.20;;
54665;SDS011;40566;50.006;36.180;2024-02-21T08:19:02;4.07;;;1.85;;
54665;SDS011;40566;50.006;36.180;2024-02-21T08:24:23;7.85;;;2.10;;
54665;SDS011;40566;50.006;36.180;2024-02-21T08:29:41;5.25;;;1.95;;
54665;SDS011;40566;50.006;36.180;2024-02-21T08:35:00;4.47;;;1.88;;
54665;SDS011;40566;50.006;36.180;2024-02-21T08:40:20;4.32;;;2.08;;
54665;SDS011;40566;50.006;36.180;2024-02-21T08:45:43;6.53;;;2.65;;
54665;SDS011;40566;50.006;36.180;2024-02-21T08:51:02;6.90;;;2.50;;
54665;SDS011;40566;50.006;36.180;2024-02-21T08:56:21;14.60;;;3.38;;
54665;SDS011;40566;50.006;36.180;2024-02-21T09:01:41;8.45;;;1.73;;
54665;SDS011;40566;50.006;36.180;2024-02-21T09:07:00;4.78;;;2.22;;
54665;SDS011;40566;50.006;36.180;2024-02-21T09:12:19;5.10;;;1.42;;
54665;SDS011;40566;50.006;36.180;2024-02-21T09:17:38;5.70;;;2.42;;
54665;SDS011;40566;50.006;36.180;2024-02-21T09:22:58;5.30;;;1.92;;
54665;SDS011;40566;50.006;36.180;2024-02-21T09:28:16;6.60;;;2.42;;
54665;SDS011;40566;50.006;36.180;2024-02-21T09:33:35;4.78;;;2.42;;
54665;SDS011;40566;50.006;36.180;2024-02-21T09:38:55;3.70;;;1.73;;
54665;SDS011;40566;50.006;36.180;2024-02-21T09:44:14;4.38;;;1.65;;
54665;SDS011;40566;50.006;36.180;2024-02-21T09:49:34;4.85;;;2.05;;
54665;SDS011;40566;50.006;36.180;2024-02-21T09:54:56;7.78;;;1.88;;
54665;SDS011;40566;50.006;36.180;2024-02-21T10:00:17;5.47;;;2.42;;
54665;SDS011;40566;50.006;36.180;2024-02-21T10:05:45;17.27;;;2.45;;
54665;SDS011;40566;50.006;36.180;2024-02-21T10:11:08;6.78;;;1.88;;
54665;SDS011;40566;50.006;36.180;2024-02-21T10:16:28;7.82;;;2.38;;
54665;SDS011;40566;50.006;36.180;2024-02-21T10:27:23;9.43;;;2.92;;
54665;SDS011;40566;50.006;36.180;2024-02-21T10:32:52;4.82;;;2.17;;
54665;SDS011;40566;50.006;36.180;2024-02-21T10:38:12;8.40;;;3.15;;
54665;SDS011;40566;50.006;36.180;2024-02-21T10:43:38;6.93;;;2.65;;
54665;SDS011;40566;50.006;36.180;2024-02-21T10:49:03;6.82;;;2.65;;
54665;SDS011;40566;50.006;36.180;2024-02-21T11:00:09;10.02;;;2.40;;
54665;SDS011;40566;50.006;36.180;2024-02-21T11:05:31;13.10;;;5.57;;
54665;SDS011;40566;50.006;36.180;2024-02-21T11:10:56;13.82;;;3.22;;
54665;SDS011;40566;50.006;36.180;2024-02-21T11:16:22;4.57;;;2.53;;
54665;SDS011;40566;50.006;36.180;2024-02-21T11:21:42;8.07;;;3.22;;
54665;SDS011;40566;50.006;36.180;2024-02-21T11:27:08;12.18;;;4.13;;
54665;SDS011;40566;50.006;36.180;2024-02-21T11:32:27;8.52;;;3.38;;
54665;SDS011;40566;50.006;36.180;2024-02-21T11:37:48;7.97;;;3.13;;
54665;SDS011;40566;50.006;36.180;2024-02-21T11:43:08;8.75;;;3.25;;
54665;SDS011;40566;50.006;36.180;2024-02-21T11:48:26;7.85;;;4.10;;
54665;SDS011;40566;50.006;36.180;2024-02-21T11:53:45;7.82;;;3.10;;
54665;SDS011;40566;50.006;36.180;2024-02-21T11:59:04;11.05;;;4.35;;
54665;SDS011;40566;50.006;36.180;2024-02-21T12:04:25;5.78;;;2.78;;
54665;SDS011;40566;50.006;36.180;2024-02-21T12:09:44;7.30;;;3.60;;
54665;SDS011;40566;50.006;36.180;2024-02-21T12:15:03;9.40;;;3.38;;
54665;SDS011;40566;50.006;36.180;2024-02-21T12:20:23;9.30;;;3.35;;
54665;SDS011;40566;50.006;36.180;2024-02-21T12:25:42;9.68;;;3.50;;
54665;SDS011;40566;50.006;36.180;2024-02-21T12:31:02;6.47;;;2.38;;
54665;SDS011;40566;50.006;36.180;2024-02-21T12:36:22;5.85;;;2.70;;
54665;SDS011;40566;50.006;36.180;2024-02-21T12:41:42;8.23;;;3.88;;
54665;SDS011;40566;50.006;36.180;2024-02-21T12:47:05;12.00;;;3.60;;
54665;SDS011;40566;50.006;36.180;2024-02-21T12:52:24;7.60;;;3.60;;
54665;SDS011;40566;50.006;36.180;2024-02-21T12:57:43;16.70;;;3.53;;
54665;SDS011;40566;50.006;36.180;2024-02-21T13:03:03;9.95;;;3.80;;
54665;SDS011;40566;50.006;36.180;2024-02-21T13:08:22;11.27;;;3.83;;
54665;SDS011;40566;50.006;36.180;2024-02-21T13:13:41;12.60;;;4.20;;
54665;SDS011;40566;50.006;36.180;2024-02-21T13:19:00;5.85;;;2.63;;
54665;SDS011;40566;50.006;36.180;2024-02-21T13:24:19;8.93;;;3.20;;
54665;SDS011;40566;50.006;36.180;2024-02-21T13:29:38;10.18;;;4.15;;
54665;SDS011;40566;50.006;36.180;2024-02-21T13:34:58;23.08;;;3.30;;
54665;SDS011;40566;50.006;36.180;2024-02-21T13:40:19;6.55;;;3.10;;
54665;SDS011;40566;50.006;36.180;2024-02-21T13:45:38;6.93;;;3.20;;
54665;SDS011;40566;50.006;36.180;2024-02-21T13:51:00;7.97;;;2.92;;
54665;SDS011;40566;50.006;36.180;2024-02-21T13:56:20;11.02;;;4.13;;
54665;SDS011;40566;50.006;36.180;2024-02-21T14:01:39;26.88;;;4.80;;
54665;SDS011;40566;50.006;36.180;2024-02-21T14:06:58;13.15;;;4.03;;
54665;SDS011;40566;50.006;36.180;2024-02-21T14:12:18;8.25;;;3.58;;
54665;SDS011;40566;50.006;36.180;2024-02-21T14:17:39;9.75;;;4.18;;
54665;SDS011;40566;50.006;36.180;2024-02-21T14:22:58;12.30;;;4.63;;
54665;SDS011;40566;50.006;36.180;2024-02-21T14:28:17;13.88;;;5.25;;
54665;SDS011;40566;50.006;36.180;2024-02-21T14:33:37;11.10;;;4.47;;
54665;SDS011;40566;50.006;36.180;2024-02-21T14:38:56;8.27;;;3.35;;
54665;SDS011;40566;50.006;36.180;2024-02-21T14:44:16;11.68;;;3.13;;
54665;SDS011;40566;50.006;36.180;2024-02-21T14:49:35;11.65;;;4.80;;
54665;SDS011;40566;50.006;36.180;2024-02-21T14:54:54;11.98;;;4.85;;
54665;SDS011;40566;50.006;36.180;2024-02-21T15:00:14;10.82;;;3.80;;
54665;SDS011;40566;50.006;36.180;2024-02-21T15:05:33;14.30;;;4.53;;
54665;SDS011;40566;50.006;36.180;2024-02-21T15:10:53;8.68;;;4.13;;
54665;SDS011;40566;50.006;36.180;2024-02-21T15:16:12;8.73;;;4.18;;
54665;SDS011;40566;50.006;36.180;2024-02-21T15:21:31;8.70;;;4.22;;
54665;SDS011;40566;50.006;36.180;2024-02-21T15:26:51;14.30;;;5.53;;
54665;SDS011;40566;50.006;36.180;2024-02-21T15:32:10;11.18;;;4.57;;
54665;SDS011;40566;50.006;36.180;2024-02-21T15:37:29;8.85;;;4.78;;
54665;SDS011;40566;50.006;36.180;2024-02-21T15:42:48;12.18;;;5.78;;
54665;SDS011;40566;50.006;36.180;2024-02-21T15:48:07;25.10;;;7.07;;
54665;SDS011;40566;50.006;36.180;2024-02-21T15:53:26;15.15;;;5.63;;
54665;SDS011;40566;50.006;36.180;2024-02-21T15:58:45;13.50;;;5.75;;
54665;SDS011;40566;50.006;36.180;2024-02-21T16:04:05;10.02;;;4.65;;
54665;SDS011;40566;50.006;36.180;2024-02-21T16:09:24;6.35;;;3.75;;
54665;SDS011;40566;50.006;36.180;2024-02-21T16:14:42;12.23;;;5.05;;
54665;SDS011;40566;50.006;36.180;2024-02-21T16:20:01;11.48;;;5.00;;
54665;SDS011;40566;50.006;36.180;2024-02-21T16:25:21;14.45;;;5.88;;
54665;SDS011;40566;50.006;36.180;2024-02-21T16:30:41;13.13;;;5.68;;
54665;SDS011;40566;50.006;36.180;2024-02-21T16:36:01;14.85;;;5.72;;
54665;SDS011;40566;50.006;36.180;2024-02-21T16:41:21;20.85;;;6.00;;
54665;SDS011;40566;50.006;36.180;2024-02-21T16:46:40;12.90;;;5.93;;
54665;SDS011;40566;50.006;36.180;2024-02-21T16:51:59;12.15;;;6.30;;
54665;SDS011;40566;50.006;36.180;2024-02-21T16:57:18;14.32;;;5.57;;
54665;SDS011;40566;50.006;36.180;2024-02-21T17:02:38;9.48;;;4.20;;
54665;SDS011;40566;50.006;36.180;2024-02-21T17:07:57;15.70;;;5.45;;
54665;SDS011;40566;50.006;36.180;2024-02-21T17:13:16;18.77;;;6.13;;
54665;SDS011;40566;50.006;36.180;2024-02-21T17:18:35;13.32;;;5.20;;
54665;SDS011;40566;50.006;36.180;2024-02-21T17:23:54;9.00;;;4.50;;
54665;SDS011;40566;50.006;36.180;2024-02-21T17:29:13;11.95;;;5.22;;
54665;SDS011;40566;50.006;36.180;2024-02-21T17:34:33;12.20;;;5.43;;
54665;SDS011;40566;50.006;36.180;2024-02-21T17:39:52;20.30;;;6.32;;
54665;SDS011;40566;50.006;36.180;2024-02-21T17:45:12;11.55;;;4.22;;
54665;SDS011;40566;50.006;36.180;2024-02-21T17:50:31;15.48;;;6.10;;
54665;SDS011;40566;50.006;36.180;2024-02-21T18:01:08;7.97;;;3.88;;
54665;SDS011;40566;50.006;36.180;2024-02-21T18:06:27;15.70;;;6.40;;
54665;SDS011;40566;50.006;36.180;2024-02-21T18:11:46;15.63;;;5.53;;
54665;SDS011;40566;50.006;36.180;2024-02-21T18:17:05;13.10;;;5.88;;
54665;SDS011;40566;50.006;36.180;2024-02-21T18:22:24;13.98;;;5.38;;
54665;SDS011;40566;50.006;36.180;2024-02-21T18:27:45;10.23;;;5.07;;
54665;SDS011;40566;50.006;36.180;2024-02-21T18:33:04;17.30;;;7.47;;
54665;SDS011;40566;50.006;36.180;2024-02-21T18:38:23;16.63;;;6.07;;
54665;SDS011;40566;50.006;36.180;2024-02-21T18:43:42;17.02;;;5.43;;
54665;SDS011;40566;50.006;36.180;2024-02-21T18:49:02;9.90;;;3.25;;
54665;SDS011;40566;50.006;36.180;2024-02-21T18:54:22;12.68;;;4.88;;
54665;SDS011;40566;50.006;36.180;2024-02-21T18:59:42;13.32;;;5.82;;
54665;SDS011;40566;50.006;36.180;2024-02-21T19:05:02;16.17;;;4.63;;
54665;SDS011;40566;50.006;36.180;2024-02-21T19:10:21;12.55;;;4.05;;
54665;SDS011;40566;50.006;36.180;2024-02-21T19:15:40;10.93;;;4.43;;
54665;SDS011;40566;50.006;36.180;2024-02-21T19:21:00;15.35;;;5.18;;
54665;SDS011;40566;50.006;36.180;2024-02-21T19:26:19;13.60;;;4.90;;
54665;SDS011;40566;50.006;36.180;2024-02-21T19:31:38;13.13;;;4.68;;
54665;SDS011;40566;50.006;36.180;2024-02-21T19:36:58;11.48;;;5.00;;
54665;SDS011;40566;50.006;36.180;2024-02-21T19:42:17;12.95;;;5.28;;
54665;SDS011;40566;50.006;36.180;2024-02-21T19:47:36;9.73;;;4.07;;
54665;SDS011;40566;50.006;36.180;2024-02-21T19:52:55;11.15;;;4.35;;
54665;SDS011;40566;50.006;36.180;2024-02-21T19:58:15;10.00;;;4.82;;
54665;SDS011;40566;50.006;36.180;2024-02-21T20:03:34;14.68;;;5.50;;
54665;SDS011;40566;50.006;36.180;2024-02-21T20:08:53;16.83;;;4.95;;
54665;SDS011;40566;50.006;36.180;2024-02-21T20:14:12;10.18;;;3.95;;
54665;SDS011;40566;50.006;36.180;2024-02-21T20:19:31;17.13;;;5.13;;
54665;SDS011;40566;50.006;36.180;2024-02-21T20:24:50;15.73;;;5.65;;
54665;SDS011;40566;50.006;36.180;2024-02-21T20:30:10;14.75;;;4.43;;
54665;SDS011;40566;50.006;36.180;2024-02-21T20:35:29;15.40;;;5.38;;
54665;SDS011;40566;50.006;36.180;2024-02-21T20:40:49;14.00;;;4.10;;
54665;SDS011;40566;50.006;36.180;2024-02-21T20:46:08;10.20;;;4.13;;
54665;SDS011;40566;50.006;36.180;2024-02-21T20:51:26;15.10;;;5.47;;
54665;SDS011;40566;50.006;36.180;2024-02-21T20:56:45;10.13;;;4.57;;
54665;SDS011;40566;50.006;36.180;2024-02-21T21:02:04;12.60;;;4.88;;
54665;SDS011;40566;50.006;36.180;2024-02-21T21:07:24;15.38;;;5.38;;
54665;SDS011;40566;50.006;36.180;2024-02-21T21:12:43;10.07;;;4.05;;
54665;SDS011;40566;50.006;36.180;2024-02-21T21:18:03;10.07;;;4.63;;
54665;SDS011;40566;50.006;36.180;2024-02-21T21:23:22;14.65;;;4.50;;
54665;SDS011;40566;50.006;36.180;2024-02-21T21:28:41;17.10;;;5.57;;
54665;SDS011;40566;50.006;36.180;2024-02-21T21:34:00;11.05;;;4.40;;
54665;SDS011;40566;50.006;36.180;2024-02-21T21:39:19;13.80;;;4.95;;
54665;SDS011;40566;50.006;36.180;2024-02-21T21:44:38;10.18;;;4.28;;
54665;SDS011;40566;50.006;36.180;2024-02-21T21:49:57;11.85;;;5.38;;
54665;SDS011;40566;50.006;36.180;2024-02-21T21:55:16;18.30;;;6.88;;
54665;SDS011;40566;50.006;36.180;2024-02-21T22:00:35;13.93;;;5.75;;
54665;SDS011;40566;50.006;36.180;2024-02-21T22:05:54;6.15;;;2.38;;
54665;SDS011;40566;50.006;36.180;2024-02-21T22:11:13;7.07;;;4.13;;
54665;SDS011;40566;50.006;36.180;2024-02-21T22:16:35;9.60;;;3.30;;
54665;SDS011;40566;50.006;36.180;2024-02-21T22:21:53;9.93;;;4.38;;
54665;SDS011;40566;50.006;36.180;2024-02-21T22:27:12;9.63;;;3.17;;
54665;SDS011;40566;50.006;36.180;2024-02-21T22:32:32;15.73;;;4.25;;
54665;SDS011;40566;50.006;36.180;2024-02-21T22:37:51;7.80;;;3.15;;
54665;SDS011;40566;50.006;36.180;2024-02-21T22:43:10;18.15;;;3.28;;
54665;SDS011;40566;50.006;36.180;2024-02-21T22:48:29;9.77;;;3.75;;
54665;SDS011;40566;50.006;36.180;2024-02-21T22:53:47;7.68;;;3.53;;
54665;SDS011;40566;50.006;36.180;2024-02-21T22:59:06;13.55;;;3.60;;
54665;SDS011;40566;50.006;36.180;2024-02-21T23:04:27;6.78;;;3.15;;
54665;SDS011;40566;50.006;36.180;2024-02-21T23:09:46;9.57;;;3.53;;
54665;SDS011;40566;50.006;36.180;2024-02-21T23:15:06;7.25;;;3.55;;
54665;SDS011;40566;50.006;36.180;2024-02-21T23:20:26;8.57;;;2.58;;
54665;SDS011;40566;50.006;36.180;2024-02-21T23:25:45;6.97;;;2.92;;
54665;SDS011;40566;50.006;36.180;2024-02-21T23:31:04;5.70;;;3.00;;
54665;SDS011;40566;50.006;36.180;2024-02-21T23:36:23;7.80;;;3.33;;
54665;SDS011;40566;50.006;36.180;2024-02-21T23:41:42;6.07;;;3.42;;
54665;SDS011;40566;50.006;36.180;2024-02-21T23:47:01;11.45;;;4.07;;
54665;SDS011;40566;50.006;36.180;2024-02-21T23:52:21;9.90;;;4.78;;
54665;SDS011;40566;50.006;36.180;2024-02-21T23:57:39;7.40;;;3.45;;
